Relevés horaires Matro (Suisse)


Relevés horaires à Matro - Lundi 23 Mai 2022
Heure UTC1 Température [°C] Vent [km/h] Hum. [%] Pres.4 [hPa] Visi. [Km] Nébu. [octa] Préc.5 [mm] Cond.
2m. Res. Ros. Dir.2 Vit. Moy. Raf.3
23:00 7.2 3.8 4.4 SSE 20.4 -- 55.6 82 850(0.3/3h) -- -- -- --
22:00 7.4 4.5 5.3 S 16.7 -- 74.1 87 850(0.1/3h) -- -- -- --
21:00 8.3 3.4 8.2 SSE 46.3 -- 61.1 99 850(-0.4/3h) -- -- -- --
20:00 8.4 3.3 8.2 SSE 50.0 -- 57.4 99 850(-0.2/3h) -- -- -- --
19:00 8.5 3.9 8.4 SSE 40.7 -- 59.3 99 850(1.0/3h) -- -- -- --
18:00 8.5 3.5 8.3 SSE 48.2 -- 94.5 99 850(0.0/3h) -- -- -- --
17:00 8.2 3.5 6.3 SSO 40.7 -- 94.5 88 850(0.1/3h) -- -- -- --
16:00 9.3 4.1 9.0 SSE 59.3 -- 87.0 98 850(-2.1/3h) -- -- -- --
15:00 9.3 4.3 9.3 SSE 55.6 -- 90.7 100 850(-2.0/3h) -- -- -- --
14:00 10.4 5.9 9.4 SSE 53.7 -- 77.8 94 850(-2.6/3h) -- -- -- --
13:00 10.9 7.1 9.2 SSE 40.7 -- 57.4 89 850(-1.6/3h) -- -- -- --
12:00 12.1 9.2 9.2 SSE 31.5 -- 50.0 82 850(-1.1/3h) -- -- -- --
11:00 11.5 8.7 8.8 SSE 27.8 -- 44.4 83 850(-1.1/3h) -- -- -- --
10:00 11.8 9.6 8.0 SSE 20.4 -- 33.3 78 850(-1.0/3h) -- -- -- --
09:00 10.8 9.1 8.5 SE 13.0 -- 33.3 86 850(-0.8/3h) -- -- -- --
08:00 10.1 8.6 8.1 S 11.1 -- 22.2 87 850(0.1/3h) -- -- -- --
07:00 9.4 6.8 8.8 SE 18.5 -- 33.3 96 850(0.2/3h) -- -- -- --
06:00 9.8 8.5 6.7 SE 9.3 -- 37.0 81 850(-0.5/3h) -- -- -- --
05:00 9.8 6.5 6.6 SE 27.8 -- 37.0 80 850(-0.7/3h) -- -- -- --
04:00 10.0 6.9 6.0 SE 25.9 -- 35.2 76 850(-1.2/3h) -- -- -- --
03:00 11.6 11 5.2 SSO 7.4 -- 16.7 65 850(-1.0/3h) -- -- -- --
02:00 12.1 12 4.5 NO 5.6 -- 16.7 60 850(-1.5/3h) -- -- -- --
01:00 11.7 11.1 4.2 NNE 7.4 -- 13.0 60 850(-1.1/3h) -- -- -- --
00:00 12.3 11.2 4.5 S 11.1 -- 37.0 59 850(-1.1/3h) -- -- -- --

1 Coordinated Universal Time. Actuellement il est 06:00 locale et 04:00 UTC.

2 Le vent souffle depuis la direction indiquée vers la direction oposée.

3 Les rafales max. sont disponible 40 min après l'heure du relevé.

4 Pour les stations d'altitude (plus de 600m) le géopotentiel du niveau le plus proche de la pression obligatoire est indiqué.

5 Les stations disposant d'un diffuseur peuvent indiquer "trace". Cela signifie que des précipitations ont touchés le sol mais que la quantité est inférieure à 0.1 mm.

Copyright

Les données affichées sur cette page sont la propriété exclusive de Météo Suisse.

Récapitulatif de la journée
Température [°C] Vent [km/h] Ensoleillement4 [h] Precipitations totale5 [mm] Pression [Hpa]
Min1 Max.2 Moy.3 Max. Min Max.
9.2 12.1 0 94.5 4 h 36 min 0 850.0 850.0

1 Température minimale relevée entre 18:00 UTC la veille et 18:00 UTC le jour donné.

2 Température maximale relevée entre 06:00 UTC le jour donné et 06:00 UTC le lendemain.

3 Vent moyen de la journée basé sur les relevés horaires.

4 Ensoleillement en heures relevé entre 06:00 UTC la veille et 06:00 UTC le jour donné.

5 Précipitations totales tombées entre 06:00 UTC la jour donné et 06:00 UTC le lendemain.

Graphiques horaires